Portada
METAR-TAF:

METAR-TAF

Aeroports :

Bélgorod, Rússia

latitud: 50-38-36N, longitud: 036-35-24E, altitud: 224 m

Observació

L'informe es va fer fa 27 minuts, a les 16:30 UTC
Vent 8 kt del Sud
Temperatura 0°C
Humitat 100%
Pressió 1019 hPa
Visibilitat: 0150 m
boira

METAR: UUOB 101630Z 18004MPS 0150 R29/0550N FG VV002 00/00 Q1019 R29/190057 NOSIG RMK QBB070

Hora: 19:57 (16:57 UTC)

Pronòstic

L'informe es va fer fa 2 hores i 57 minuts, a les 14:00 UTC
Pronòstic vàlid del 10 a les 15 UTC al 10 a les 24 UTC
Vent 6 kt del Sud/Sud-Est
Visibilitat: 0300 m
a una alçada de 200 ft
boira
Temporalment
l' 10 a les 15 UTC al 10 a les 21 UTC
Visibilitat: 1500 m
Cel cobert a una alçada de 400 ft
boirina

TAF: UUOB 101400Z 1015/1024 16003MPS 0300 FG VV002 TEMPO 1015/1021 1500 BR OVC004

Observacions i pronòstics meteorològics de més de 4000 aeroports (METAR i TAF).

Les estacions disponibles són els punts grocs i vermells al mapa.

Posi el ratolí al punt desitjat per veure el nom de l'estació.

Feu clic per veure les observacions i els pronòstics meteorològics.

Per canviar el mapa: feu clic els botons verds amb una creu de color negre per apropar; al botó verd amb un guió per allunyar la imatge; o en les fletxes verdes per a mapes adjacents.


METAR-TAF: